Terminal Aerodrome Forecast
Issued by NWS La Crosse, WI

Home | Current Version | Previous Version | Text Only | Print | Product List | Glossary On
Versions: 1 2 3 4 5 6 7 8 9 10 11 12 13 14 15 16 17 18 19 20 21 22 23 24 25 26 27 28 29 30 31 32 33 34 35 36 37 38 39 40
000
FTUS43 KARX 260520
TAFRST
TAF
KRST 260520Z 2606/2706 18010KT P6SM BKN120 WS020/22040KT
     FM260800 18009KT P6SM BKN100
     FM261100 21007KT P6SM -SHRA VCTS BKN025CB
     FM261600 22007KT P6SM VCSH BKN025
     FM261900 29006KT P6SM BKN035
     FM270300 35005KT P6SM SCT060=

USA.gov is the U.S. government's official web portal to all federal, state and local government web resources and services.